Time;durP1;ratioP1;P1;durP2;ratioP2;P2;SDS_P1;SDS_P2;PMS_P1;PMS_P2;Temp;Humidity;BMP_temperature;BMP_pressure;BME280_temperature;BME280_humidity;BME280_pressure;Samples;Min_cycle;Max_cycle;Signal;HPM_P1;HPM_P2
2022/05/23 00:01:18;;;;;;;6.22;3.00;;;;;;;;;;5095535;28;20093;-69
2022/05/23 00:03:45;;;;;;;7.05;2.95;;;;;;;;;;5095369;28;20124;-69
2022/05/23 00:06:19;;;;;;;4.72;3.17;;;;;;;;;;5095377;28;20055;-69
2022/05/23 00:08:46;;;;;;;6.10;3.10;;;;;;;;;;5091837;28;20102;-69
2022/05/23 00:11:12;;;;;;;4.75;2.80;;;;;;;;;;5095338;28;20048;-70
2022/05/23 00:13:38;;;;;;;5.88;2.88;;;;;;;;;;5080165;28;20547;-69
2022/05/23 00:16:04;;;;;;;3.88;2.63;;;;;;;;;;5094750;28;20447;-70
2022/05/23 00:18:30;;;;;;;9.00;3.63;;;;;;;;;;5094989;28;20044;-69
2022/05/23 00:20:56;;;;;;;8.48;3.28;;;;;;;;;;5094276;28;20044;-70
2022/05/23 00:23:22;;;;;;;4.97;2.75;;;;;;;;;;5094663;28;20048;-70
2022/05/23 00:25:49;;;;;;;7.60;3.10;;;;;;;;;;5094765;28;20544;-69
2022/05/23 00:28:15;;;;;;;5.63;3.10;;;;;;;;;;5094973;28;20036;-70
2022/05/23 00:30:41;;;;;;;3.63;2.83;;;;;;;;;;5095510;28;20040;-69
2022/05/23 00:35:54;;;;;;;3.90;2.65;;;;;;;;;;5094992;28;20101;-69
2022/05/23 00:38:21;;;;;;;5.68;3.00;;;;;;;;;;5095010;28;20388;-69
2022/05/23 00:40:47;;;;;;;6.82;2.80;;;;;;;;;;5094646;28;20127;-71
2022/05/23 00:43:21;;;;;;;7.13;3.10;;;;;;;;;;5095178;28;20105;-70
2022/05/23 00:45:52;;;;;;;7.68;2.90;;;;;;;;;;5094546;28;20080;-69
2022/05/23 00:48:20;;;;;;;5.68;2.88;;;;;;;;;;5094863;28;20098;-69
2022/05/23 00:50:49;;;;;;;7.18;3.17;;;;;;;;;;5094114;28;20047;-70
2022/05/23 00:53:15;;;;;;;7.32;3.25;;;;;;;;;;5093780;28;20051;-69
2022/05/23 00:55:47;;;;;;;5.85;2.55;;;;;;;;;;5094180;28;20051;-69
2022/05/23 00:58:22;;;;;;;4.07;2.80;;;;;;;;;;5094097;28;20044;-69
2022/05/23 01:00:48;;;;;;;5.07;3.03;;;;;;;;;;5094078;28;20048;-69
2022/05/23 01:03:16;;;;;;;6.22;2.92;;;;;;;;;;5094015;28;20391;-69
2022/05/23 01:05:42;;;;;;;12.45;3.20;;;;;;;;;;5093975;28;20095;-69
2022/05/23 01:08:09;;;;;;;4.50;2.50;;;;;;;;;;5094238;28;20070;-69
2022/05/23 01:10:37;;;;;;;4.30;2.30;;;;;;;;;;5094342;28;20044;-69
2022/05/23 01:13:03;;;;;;;6.00;2.60;;;;;;;;;;5094694;28;20395;-69
2022/05/23 01:15:31;;;;;;;5.13;2.83;;;;;;;;;;5094159;28;20044;-70
2022/05/23 01:17:57;;;;;;;6.95;2.92;;;;;;;;;;5093723;28;20411;-69
2022/05/23 01:20:23;;;;;;;5.78;2.55;;;;;;;;;;5093584;28;20036;-70
2022/05/23 01:23:15;;;;;;;4.53;2.65;;;;;;;;;;5094344;28;20423;-69
2022/05/23 01:25:43;;;;;;;4.15;2.60;;;;;;;;;;5071808;28;20056;-70
2022/05/23 01:28:11;;;;;;;5.45;2.85;;;;;;;;;;5093212;28;20102;-69
2022/05/23 01:30:37;;;;;;;4.85;2.58;;;;;;;;;;5093866;28;20047;-69
2022/05/23 01:33:04;;;;;;;4.68;2.65;;;;;;;;;;5093389;28;20562;-70
2022/05/23 01:35:30;;;;;;;3.60;2.67;;;;;;;;;;5075252;28;20044;-69
2022/05/23 01:37:57;;;;;;;6.00;2.80;;;;;;;;;;5093404;28;20518;-68
2022/05/23 01:40:23;;;;;;;5.90;2.35;;;;;;;;;;5093813;28;20475;-69
2022/05/23 01:42:50;;;;;;;5.38;2.50;;;;;;;;;;5093720;28;20079;-68
2022/05/23 01:45:17;;;;;;;6.15;2.75;;;;;;;;;;5093712;28;20063;-68
2022/05/23 01:47:43;;;;;;;5.97;2.58;;;;;;;;;;5093720;28;20044;-68
2022/05/23 01:50:10;;;;;;;5.47;2.72;;;;;;;;;;5093382;28;20169;-68
2022/05/23 01:52:36;;;;;;;7.10;2.70;;;;;;;;;;5091681;28;20483;-68
2022/05/23 01:55:02;;;;;;;5.38;2.47;;;;;;;;;;5092938;28;20126;-68
2022/05/23 01:57:29;;;;;;;6.97;2.60;;;;;;;;;;5092926;28;20426;-68
2022/05/23 02:02:40;;;;;;;5.25;2.55;;;;;;;;;;5092705;28;20082;-68
2022/05/23 02:05:06;;;;;;;4.28;2.40;;;;;;;;;;5092619;28;20040;-68
2022/05/23 02:07:35;;;;;;;4.32;2.90;;;;;;;;;;5092911;28;20044;-68
2022/05/23 02:10:02;;;;;;;5.40;2.75;;;;;;;;;;5093729;28;20044;-67
2022/05/23 02:12:28;;;;;;;5.97;2.88;;;;;;;;;;5091629;28;20071;-67
2022/05/23 02:15:03;;;;;;;7.47;2.67;;;;;;;;;;5092792;28;20048;-68
2022/05/23 02:17:29;;;;;;;4.80;2.33;;;;;;;;;;5092619;28;20100;-68
2022/05/23 02:19:55;;;;;;;5.68;2.80;;;;;;;;;;5092394;28;20052;-67
2022/05/23 02:22:21;;;;;;;4.47;2.70;;;;;;;;;;5093349;28;20055;-71
2022/05/23 02:25:03;;;;;;;6.05;3.10;;;;;;;;;;5091056;28;20055;-68
2022/05/23 02:27:30;;;;;;;4.40;2.70;;;;;;;;;;5092425;28;20522;-71
2022/05/23 02:29:57;;;;;;;4.60;2.83;;;;;;;;;;5093447;28;20052;-68
2022/05/23 02:32:23;;;;;;;4.70;2.70;;;;;;;;;;5092480;28;20048;-69
2022/05/23 02:34:49;;;;;;;4.15;2.88;;;;;;;;;;5092143;28;20044;-69
2022/05/23 02:37:15;;;;;;;5.55;2.75;;;;;;;;;;5091857;28;20471;-69
2022/05/23 02:39:41;;;;;;;5.07;2.70;;;;;;;;;;5093199;28;20043;-68
2022/05/23 02:42:08;;;;;;;3.95;2.92;;;;;;;;;;5092049;28;20115;-69
2022/05/23 02:44:35;;;;;;;5.03;2.70;;;;;;;;;;5091964;28;20521;-68
2022/05/23 02:47:01;;;;;;;4.35;2.88;;;;;;;;;;5092049;28;20441;-69
2022/05/23 02:49:27;;;;;;;4.75;3.10;;;;;;;;;;5092261;28;20048;-68
2022/05/23 02:51:53;;;;;;;6.88;3.00;;;;;;;;;;5091476;28;20051;-68
2022/05/23 02:54:20;;;;;;;7.18;3.25;;;;;;;;;;5093307;28;20044;-68
2022/05/23 02:56:46;;;;;;;5.18;3.03;;;;;;;;;;5095112;28;20055;-68
2022/05/23 02:59:12;;;;;;;7.03;3.55;;;;;;;;;;5091600;28;20044;-72
2022/05/23 03:04:26;;;;;;;7.10;3.00;;;;;;;;;;5086787;28;20103;-69
2022/05/23 03:06:52;;;;;;;6.78;3.92;;;;;;;;;;5092005;28;20051;-72
2022/05/23 03:09:18;;;;;;;8.13;3.75;;;;;;;;;;5092105;28;20043;-72
2022/05/23 03:11:44;;;;;;;5.20;3.33;;;;;;;;;;5092179;28;20036;-71
2022/05/23 03:14:10;;;;;;;17.15;5.05;;;;;;;;;;5091933;28;20483;-72
2022/05/23 03:16:36;;;;;;;13.30;4.00;;;;;;;;;;5091950;28;20033;-73
2022/05/23 03:19:04;;;;;;;27.83;7.13;;;;;;;;;;5092326;28;20048;-72
2022/05/23 03:26:59;;;;;;;15.07;4.80;;;;;;;;;;5091745;28;20056;-72
2022/05/23 03:29:26;;;;;;;11.35;3.80;;;;;;;;;;5092538;28;20165;-72
2022/05/23 03:31:52;;;;;;;13.05;4.53;;;;;;;;;;5091759;28;20456;-72
2022/05/23 03:34:18;;;;;;;13.07;4.50;;;;;;;;;;5091901;28;20040;-72
2022/05/23 03:36:44;;;;;;;10.80;4.60;;;;;;;;;;5091281;28;20051;-72
2022/05/23 03:39:10;;;;;;;19.42;6.20;;;;;;;;;;5092313;28;20059;-72
2022/05/23 03:41:38;;;;;;;22.25;6.10;;;;;;;;;;5091621;28;20040;-71
2022/05/23 03:44:04;;;;;;;14.38;4.82;;;;;;;;;;5091520;28;20127;-72
2022/05/23 03:46:32;;;;;;;7.00;3.78;;;;;;;;;;5090763;28;20534;-70
2022/05/23 03:48:58;;;;;;;10.75;4.03;;;;;;;;;;5090868;28;20427;-69
2022/05/23 03:51:24;;;;;;;6.88;3.63;;;;;;;;;;5091513;28;20048;-70
2022/05/23 03:53:50;;;;;;;7.70;3.65;;;;;;;;;;5091912;28;20048;-70
2022/05/23 03:56:15;;;;;;;11.25;4.03;;;;;;;;;;5090984;28;20062;-70
2022/05/23 03:58:41;;;;;;;8.85;4.03;;;;;;;;;;5091848;28;20406;-69
2022/05/23 04:01:09;;;;;;;8.88;3.95;;;;;;;;;;5092393;28;20074;-71
2022/05/23 04:03:35;;;;;;;12.23;3.55;;;;;;;;;;5091277;28;20123;-70
2022/05/23 04:06:02;;;;;;;10.10;4.35;;;;;;;;;;5091116;28;20096;-72
2022/05/23 04:08:28;;;;;;;34.10;8.15;;;;;;;;;;5091345;28;20032;-71
2022/05/23 04:10:54;;;;;;;23.95;5.68;;;;;;;;;;5095991;28;20486;-72
2022/05/23 04:13:20;;;;;;;16.80;5.63;;;;;;;;;;5095397;28;20429;-72
2022/05/23 04:15:46;;;;;;;14.23;4.60;;;;;;;;;;5094918;28;20469;-72
2022/05/23 04:18:12;;;;;;;8.45;4.35;;;;;;;;;;5094948;28;20047;-72
2022/05/23 04:20:38;;;;;;;43.80;8.50;;;;;;;;;;5093365;28;20052;-71
2022/05/23 04:23:08;;;;;;;26.85;8.27;;;;;;;;;;5094851;28;20513;-72
2022/05/23 04:25:35;;;;;;;21.42;6.70;;;;;;;;;;5095496;28;20051;-72
2022/05/23 04:28:01;;;;;;;19.42;5.82;;;;;;;;;;5094661;28;20055;-72
2022/05/23 04:30:27;;;;;;;14.77;5.30;;;;;;;;;;5094682;28;20045;-72
2022/05/23 04:35:38;;;;;;;7.05;3.67;;;;;;;;;;5087383;28;20056;-72
2022/05/23 04:38:04;;;;;;;11.38;5.30;;;;;;;;;;5095409;28;20047;-71
2022/05/23 04:40:30;;;;;;;8.68;4.43;;;;;;;;;;5094817;28;20044;-71
2022/05/23 04:42:56;;;;;;;19.90;4.55;;;;;;;;;;5094367;28;20062;-69
2022/05/23 04:45:23;;;;;;;9.73;4.97;;;;;;;;;;5094998;28;20044;-70
2022/05/23 04:50:34;;;;;;;26.25;7.05;;;;;;;;;;5094521;28;20044;-70
2022/05/23 04:53:01;;;;;;;34.72;9.45;;;;;;;;;;5094477;28;20044;-69
2022/05/23 04:55:27;;;;;;;32.78;10.63;;;;;;;;;;5093973;28;20048;-70
2022/05/23 04:57:54;;;;;;;15.20;6.38;;;;;;;;;;5094137;28;20040;-70
2022/05/23 05:00:21;;;;;;;14.20;5.30;;;;;;;;;;5094675;28;20079;-70
2022/05/23 05:02:48;;;;;;;25.92;8.85;;;;;;;;;;5094405;28;20040;-69
2022/05/23 05:05:15;;;;;;;25.40;9.77;;;;;;;;;;5094303;28;20040;-69
2022/05/23 05:07:41;;;;;;;37.72;10.90;;;;;;;;;;5094889;28;20077;-70
2022/05/23 05:10:07;;;;;;;20.00;6.40;;;;;;;;;;5092889;28;20051;-71
2022/05/23 05:12:33;;;;;;;24.70;8.15;;;;;;;;;;5094300;28;20048;-70
2022/05/23 05:15:00;;;;;;;72.82;18.70;;;;;;;;;;5094475;28;20055;-70
2022/05/23 05:17:27;;;;;;;100.93;25.55;;;;;;;;;;5093941;28;20051;-70
2022/05/23 05:19:53;;;;;;;48.40;14.73;;;;;;;;;;5089189;28;20045;-70
2022/05/23 05:22:19;;;;;;;27.15;8.25;;;;;;;;;;5089120;28;20046;-70
2022/05/23 05:24:45;;;;;;;35.15;11.45;;;;;;;;;;5092939;28;20040;-70
2022/05/23 05:27:12;;;;;;;23.30;7.60;;;;;;;;;;5090356;28;20040;-69
2022/05/23 05:29:38;;;;;;;40.83;12.27;;;;;;;;;;5091993;28;20461;-70
2022/05/23 05:32:09;;;;;;;22.60;7.22;;;;;;;;;;5094088;28;20352;-70
2022/05/23 05:34:47;;;;;;;14.73;6.97;;;;;;;;;;5069396;28;20028;-69
2022/05/23 05:37:15;;;;;;;14.95;5.82;;;;;;;;;;5092882;28;20052;-68
2022/05/23 05:39:42;;;;;;;10.30;5.55;;;;;;;;;;5085589;28;20143;-69
2022/05/23 05:42:14;;;;;;;7.05;5.20;;;;;;;;;;5092765;28;20059;-68
2022/05/23 05:44:42;;;;;;;20.00;7.68;;;;;;;;;;5093439;28;20075;-70
2022/05/23 05:47:10;;;;;;;28.10;10.88;;;;;;;;;;5093592;28;20043;-69
2022/05/23 05:49:37;;;;;;;12.38;7.05;;;;;;;;;;5093178;28;20032;-71
2022/05/23 05:52:05;;;;;;;39.08;14.23;;;;;;;;;;5093295;28;20040;-68
2022/05/23 05:54:32;;;;;;;25.27;10.63;;;;;;;;;;5092948;28;20052;-69
2022/05/23 05:56:59;;;;;;;24.73;9.93;;;;;;;;;;5093739;28;20040;-69
2022/05/23 05:59:25;;;;;;;18.05;6.93;;;;;;;;;;5093060;28;20044;-66
2022/05/23 06:01:51;;;;;;;11.10;5.57;;;;;;;;;;5092549;28;20173;-68
2022/05/23 06:04:17;;;;;;;17.92;6.20;;;;;;;;;;5092715;28;20123;-68
2022/05/23 06:12:13;;;;;;;35.50;14.35;;;;;;;;;;5091680;28;20415;-72
2022/05/23 06:14:40;;;;;;;19.17;7.97;;;;;;;;;;5091829;28;20088;-69
2022/05/23 06:17:07;;;;;;;15.75;8.25;;;;;;;;;;5092388;28;20112;-69
2022/05/23 06:19:38;;;;;;;36.83;14.50;;;;;;;;;;5092269;28;20040;-69
2022/05/23 06:22:07;;;;;;;25.60;9.90;;;;;;;;;;5092956;28;20376;-69
2022/05/23 06:24:33;;;;;;;12.73;6.05;;;;;;;;;;5092652;28;20157;-69
2022/05/23 06:26:59;;;;;;;21.77;8.02;;;;;;;;;;5093782;28;20060;-69
2022/05/23 06:29:26;;;;;;;13.27;5.32;;;;;;;;;;5088932;28;20048;-69
2022/05/23 06:31:52;;;;;;;19.00;7.72;;;;;;;;;;5089917;28;20098;-69
2022/05/23 06:34:18;;;;;;;13.55;6.75;;;;;;;;;;5092184;28;20196;-69
2022/05/23 06:36:44;;;;;;;11.95;5.47;;;;;;;;;;5071185;28;20384;-69
2022/05/23 06:39:10;;;;;;;18.80;7.57;;;;;;;;;;5092105;28;20044;-69
2022/05/23 06:41:36;;;;;;;29.27;10.00;;;;;;;;;;5101583;28;20043;-69
2022/05/23 06:44:02;;;;;;;16.45;7.15;;;;;;;;;;5091886;28;20093;-69
2022/05/23 06:46:28;;;;;;;11.95;5.88;;;;;;;;;;5090528;28;20055;-69
2022/05/23 06:48:54;;;;;;;24.67;8.90;;;;;;;;;;5089398;28;20054;-69
2022/05/23 06:51:20;;;;;;;19.48;8.27;;;;;;;;;;5090130;28;20122;-69
2022/05/23 06:53:46;;;;;;;18.50;8.85;;;;;;;;;;5091790;28;20047;-69
2022/05/23 06:56:12;;;;;;;15.95;7.50;;;;;;;;;;5091812;28;20036;-68
2022/05/23 06:58:39;;;;;;;16.42;6.90;;;;;;;;;;5092809;28;20522;-68
2022/05/23 07:01:05;;;;;;;16.80;6.88;;;;;;;;;;5092118;28;20036;-69
2022/05/23 07:03:31;;;;;;;19.80;7.53;;;;;;;;;;5091251;28;20036;-67
2022/05/23 07:14:11;;;;;;;23.30;10.80;;;;;;;;;;5087274;28;20071;-69
2022/05/23 07:16:37;;;;;;;39.67;14.80;;;;;;;;;;5091010;28;20097;-70
2022/05/23 07:19:04;;;;;;;13.93;7.47;;;;;;;;;;5087627;28;20044;-69
2022/05/23 07:21:31;;;;;;;15.25;6.72;;;;;;;;;;5092464;28;20048;-70
2022/05/23 07:23:58;;;;;;;23.25;9.75;;;;;;;;;;5090551;28;20093;-70
2022/05/23 07:26:24;;;;;;;13.05;5.60;;;;;;;;;;5091914;28;20073;-69
2022/05/23 07:28:51;;;;;;;17.67;6.90;;;;;;;;;;5092579;28;20048;-69
2022/05/23 07:31:18;;;;;;;24.80;9.48;;;;;;;;;;5091972;28;20421;-69
2022/05/23 07:33:44;;;;;;;37.78;13.02;;;;;;;;;;5091791;28;20055;-69
2022/05/23 07:36:11;;;;;;;20.90;8.68;;;;;;;;;;5091546;28;20173;-69
2022/05/23 07:38:37;;;;;;;18.52;7.20;;;;;;;;;;5091746;28;20055;-70
2022/05/23 07:41:04;;;;;;;18.80;7.97;;;;;;;;;;5092003;28;20414;-69
2022/05/23 07:43:35;;;;;;;9.88;4.78;;;;;;;;;;5092708;28;20119;-69
2022/05/23 07:46:09;;;;;;;7.55;4.93;;;;;;;;;;5095473;28;20054;-69
2022/05/23 07:48:36;;;;;;;16.98;8.25;;;;;;;;;;5095462;28;20047;-70
2022/05/23 07:51:03;;;;;;;8.57;4.60;;;;;;;;;;5095337;28;20105;-69
2022/05/23 08:01:43;;;;;;;10.68;4.68;;;;;;;;;;5095018;28;20051;-70
2022/05/23 08:04:09;;;;;;;17.77;6.18;;;;;;;;;;5094516;28;20052;-67
2022/05/23 08:06:36;;;;;;;16.77;5.13;;;;;;;;;;5096292;28;20040;-70
2022/05/23 08:09:02;;;;;;;11.48;5.22;;;;;;;;;;5094552;28;20036;-70
2022/05/23 08:11:28;;;;;;;10.60;5.07;;;;;;;;;;5095162;28;20052;-69
2022/05/23 08:13:55;;;;;;;34.92;9.77;;;;;;;;;;5095451;28;20040;-70
2022/05/23 08:16:21;;;;;;;12.38;5.40;;;;;;;;;;5094825;28;20076;-69
2022/05/23 08:18:47;;;;;;;10.63;4.65;;;;;;;;;;5094761;28;20458;-68
2022/05/23 08:21:15;;;;;;;14.65;4.60;;;;;;;;;;5095791;28;20080;-68
2022/05/23 08:23:42;;;;;;;36.20;9.70;;;;;;;;;;5095178;28;20082;-68
2022/05/23 08:26:08;;;;;;;20.33;6.85;;;;;;;;;;5094882;28;20050;-68
2022/05/23 08:28:34;;;;;;;12.07;4.88;;;;;;;;;;5094954;28;20059;-68
2022/05/23 08:31:00;;;;;;;13.88;4.63;;;;;;;;;;5095745;28;20036;-67
2022/05/23 08:33:26;;;;;;;8.15;4.20;;;;;;;;;;5094844;28;20055;-68
2022/05/23 08:35:53;;;;;;;12.45;4.50;;;;;;;;;;5094414;28;20048;-68
2022/05/23 08:38:19;;;;;;;11.95;4.65;;;;;;;;;;5094315;28;20085;-69
2022/05/23 08:40:53;;;;;;;9.93;4.03;;;;;;;;;;5094982;28;20096;-68
2022/05/23 08:43:26;;;;;;;8.95;4.30;;;;;;;;;;5094120;28;20119;-68
2022/05/23 08:45:55;;;;;;;12.93;4.72;;;;;;;;;;5094148;28;20131;-68
2022/05/23 08:48:35;;;;;;;11.98;4.50;;;;;;;;;;5095055;28;20119;-68
2022/05/23 08:51:11;;;;;;;8.90;3.85;;;;;;;;;;5094437;28;20043;-69
2022/05/23 08:53:48;;;;;;;10.63;5.10;;;;;;;;;;5094926;28;20097;-69
2022/05/23 08:56:33;;;;;;;21.52;5.55;;;;;;;;;;5091452;28;20040;-69
2022/05/23 08:59:00;;;;;;;8.63;4.38;;;;;;;;;;5095175;28;20057;-70
2022/05/23 09:01:30;;;;;;;8.87;4.63;;;;;;;;;;5094149;28;20128;-70
2022/05/23 09:04:04;;;;;;;5.68;3.40;;;;;;;;;;5094080;28;20337;-70
2022/05/23 09:06:34;;;;;;;12.68;5.40;;;;;;;;;;5094231;28;20040;-69
2022/05/23 09:09:01;;;;;;;18.50;5.13;;;;;;;;;;5095021;28;20051;-69
2022/05/23 09:11:38;;;;;;;10.85;5.30;;;;;;;;;;5094015;28;20054;-70
2022/05/23 09:14:05;;;;;;;13.40;7.45;;;;;;;;;;5093569;28;20635;-71
2022/05/23 09:16:32;;;;;;;24.23;14.07;;;;;;;;;;5094750;28;20101;-69
2022/05/23 09:19:10;;;;;;;11.75;7.22;;;;;;;;;;5093464;28;20603;-69
2022/05/23 09:24:21;;;;;;;7.93;4.05;;;;;;;;;;5093383;28;20056;-70
2022/05/23 09:26:47;;;;;;;12.65;4.80;;;;;;;;;;5093354;28;20047;-69
2022/05/23 09:29:14;;;;;;;15.07;5.00;;;;;;;;;;5093682;28;20036;-69
2022/05/23 09:31:44;;;;;;;5.93;3.50;;;;;;;;;;5093733;28;20051;-69
2022/05/23 09:34:29;;;;;;;8.60;4.05;;;;;;;;;;5094301;28;20044;-70
2022/05/23 09:36:56;;;;;;;8.35;3.92;;;;;;;;;;5093474;28;20109;-70
2022/05/23 09:39:26;;;;;;;7.88;3.63;;;;;;;;;;5093477;28;20044;-69
2022/05/23 09:47:46;;;;;;;9.82;3.58;;;;;;;;;;5094061;28;20139;-69
2022/05/23 09:50:32;;;;;;;9.88;3.78;;;;;;;;;;5093920;28;20082;-68
2022/05/23 09:52:59;;;;;;;8.05;3.30;;;;;;;;;;5092893;28;20043;-67
2022/05/23 09:55:31;;;;;;;8.40;3.53;;;;;;;;;;5092882;28;20055;-68
2022/05/23 09:58:23;;;;;;;8.40;3.58;;;;;;;;;;5092350;28;20067;-68
2022/05/23 10:00:57;;;;;;;27.30;7.85;;;;;;;;;;5090211;28;20047;-68
2022/05/23 10:03:25;;;;;;;4.75;3.10;;;;;;;;;;5092237;28;20065;-68
2022/05/23 10:06:03;;;;;;;7.47;3.33;;;;;;;;;;5089386;28;20048;-68
2022/05/23 10:08:29;;;;;;;9.52;3.38;;;;;;;;;;5092537;28;20111;-68
2022/05/23 10:11:00;;;;;;;10.52;4.25;;;;;;;;;;5092339;28;20127;-68
2022/05/23 10:13:26;;;;;;;10.02;3.67;;;;;;;;;;5092677;28;20036;-68
2022/05/23 10:16:10;;;;;;;29.00;6.35;;;;;;;;;;5092837;28;20493;-68
2022/05/23 10:18:38;;;;;;;6.00;2.83;;;;;;;;;;5088616;28;20044;-68
2022/05/23 10:21:19;;;;;;;6.75;3.05;;;;;;;;;;5093432;28;20047;-69
2022/05/23 10:23:58;;;;;;;9.52;3.42;;;;;;;;;;5092648;28;20044;-68
2022/05/23 10:26:25;;;;;;;16.20;4.53;;;;;;;;;;5092050;28;20044;-68
2022/05/23 10:29:01;;;;;;;27.08;7.78;;;;;;;;;;5092361;28;20368;-68
2022/05/23 10:31:31;;;;;;;8.60;3.35;;;;;;;;;;5092408;28;20048;-69
2022/05/23 10:34:04;;;;;;;14.65;5.97;;;;;;;;;;5092423;28;20169;-68
2022/05/23 10:36:30;;;;;;;29.55;9.02;;;;;;;;;;5093312;28;20060;-68
2022/05/23 10:44:32;;;;;;;10.85;4.22;;;;;;;;;;5091715;28;20044;-68
2022/05/23 10:47:04;;;;;;;15.65;5.20;;;;;;;;;;5092483;28;20040;-68
2022/05/23 10:49:35;;;;;;;14.75;4.40;;;;;;;;;;5092466;28;20445;-68
2022/05/23 10:52:13;;;;;;;7.47;3.22;;;;;;;;;;5092452;28;20043;-68
2022/05/23 10:54:45;;;;;;;18.75;4.85;;;;;;;;;;5093063;28;20067;-68
2022/05/23 10:57:26;;;;;;;10.02;3.95;;;;;;;;;;5092109;28;20132;-68
2022/05/23 11:00:07;;;;;;;4.82;2.50;;;;;;;;;;5092057;28;20388;-68
2022/05/23 11:02:50;;;;;;;5.97;2.78;;;;;;;;;;5092121;28;20387;-69
2022/05/23 11:05:27;;;;;;;12.90;6.07;;;;;;;;;;5091786;28;20422;-68
2022/05/23 11:07:56;;;;;;;9.88;4.43;;;;;;;;;;5092124;28;20044;-69
2022/05/23 11:10:29;;;;;;;7.57;3.00;;;;;;;;;;5091966;28;20510;-68
2022/05/23 11:13:01;;;;;;;17.17;3.05;;;;;;;;;;5092758;28;20108;-67
2022/05/23 11:15:27;;;;;;;8.57;4.10;;;;;;;;;;5091760;28;20463;-68
2022/05/23 11:17:58;;;;;;;11.80;6.25;;;;;;;;;;5091958;28;20144;-68
2022/05/23 11:20:24;;;;;;;8.45;3.55;;;;;;;;;;5095233;28;20101;-68
2022/05/23 11:22:53;;;;;;;11.38;3.30;;;;;;;;;;5096088;28;20040;-68
2022/05/23 11:25:33;;;;;;;13.73;5.45;;;;;;;;;;5096958;28;20040;-68
2022/05/23 11:33:47;;;;;;;13.50;4.30;;;;;;;;;;5095442;28;20052;-69
2022/05/23 11:36:24;;;;;;;9.05;3.55;;;;;;;;;;5093247;28;20088;-69
2022/05/23 11:38:51;;;;;;;14.45;6.53;;;;;;;;;;5093070;28;20115;-69
2022/05/23 11:41:55;;;;;;;8.75;4.03;;;;;;;;;;5095675;28;20032;-68
2022/05/23 11:44:45;;;;;;;7.93;4.38;;;;;;;;;;5074027;28;20075;-69
2022/05/23 11:47:18;;;;;;;10.20;5.40;;;;;;;;;;5065375;28;20057;-69
2022/05/23 11:49:48;;;;;;;4.70;2.75;;;;;;;;;;5072666;28;20052;-69
2022/05/23 11:52:25;;;;;;;6.95;2.75;;;;;;;;;;5073018;28;20457;-69
2022/05/23 11:54:51;;;;;;;8.10;3.90;;;;;;;;;;5072611;28;20056;-69
2022/05/23 11:57:31;;;;;;;5.03;2.25;;;;;;;;;;5072708;28;20040;-69
2022/05/23 11:59:57;;;;;;;7.25;3.17;;;;;;;;;;5072973;28;20115;-70
2022/05/23 12:02:26;;;;;;;9.30;3.60;;;;;;;;;;5073653;28;20131;-69
2022/05/23 12:04:54;;;;;;;17.38;5.50;;;;;;;;;;5072781;28;20044;-69
2022/05/23 12:07:38;;;;;;;13.95;3.90;;;;;;;;;;5072752;28;20075;-68
2022/05/23 12:10:22;;;;;;;9.30;2.88;;;;;;;;;;5072733;28;20041;-68
2022/05/23 12:12:50;;;;;;;16.42;6.13;;;;;;;;;;5073534;28;20076;-68
2022/05/23 12:15:35;;;;;;;10.70;3.95;;;;;;;;;;5085485;28;20088;-69
2022/05/23 12:18:01;;;;;;;5.93;3.10;;;;;;;;;;5094211;28;20036;-69
2022/05/23 12:20:28;;;;;;;7.38;2.88;;;;;;;;;;5095107;28;20050;-70
2022/05/23 12:23:24;;;;;;;6.05;2.60;;;;;;;;;;5095258;28;20040;-70
2022/05/23 12:26:05;;;;;;;13.45;5.22;;;;;;;;;;5090358;28;20107;-68
2022/05/23 12:28:41;;;;;;;16.67;4.50;;;;;;;;;;5091029;28;20399;-69
2022/05/23 12:31:12;;;;;;;13.02;6.18;;;;;;;;;;5093633;28;20121;-69
2022/05/23 12:33:41;;;;;;;11.38;4.35;;;;;;;;;;5094655;28;20094;-69
2022/05/23 12:36:08;;;;;;;11.82;4.97;;;;;;;;;;5094569;28;20070;-69
2022/05/23 12:38:46;;;;;;;6.30;2.90;;;;;;;;;;5095269;28;20100;-68
2022/05/23 12:41:12;;;;;;;12.55;5.32;;;;;;;;;;5094661;28;20050;-68
2022/05/23 12:43:49;;;;;;;13.27;4.15;;;;;;;;;;5094242;28;20114;-68
2022/05/23 12:46:32;;;;;;;7.22;2.97;;;;;;;;;;5094345;28;20044;-68
2022/05/23 12:49:09;;;;;;;3.83;2.75;;;;;;;;;;5094259;28;20110;-68
2022/05/23 12:51:44;;;;;;;3.95;2.78;;;;;;;;;;5095152;28;20037;-68
2022/05/23 12:54:28;;;;;;;16.77;4.72;;;;;;;;;;5094352;28;20040;-68
2022/05/23 12:56:57;;;;;;;11.40;4.05;;;;;;;;;;5094297;28;20079;-69
2022/05/23 12:59:23;;;;;;;4.68;2.90;;;;;;;;;;5094506;28;20047;-69
2022/05/23 13:01:50;;;;;;;10.35;3.10;;;;;;;;;;5093886;28;20036;-70
2022/05/23 13:04:20;;;;;;;5.22;2.70;;;;;;;;;;5094857;28;20052;-69
2022/05/23 13:06:58;;;;;;;5.13;2.33;;;;;;;;;;5093822;28;20548;-69
2022/05/23 13:09:33;;;;;;;4.15;2.40;;;;;;;;;;5094124;28;20052;-68
2022/05/23 13:12:02;;;;;;;3.28;2.35;;;;;;;;;;5093640;28;20126;-69
2022/05/23 13:14:45;;;;;;;4.82;2.53;;;;;;;;;;5094051;28;20050;-68
2022/05/23 13:17:11;;;;;;;12.85;4.50;;;;;;;;;;5094910;28;20043;-69
2022/05/23 13:22:38;;;;;;;6.45;3.72;;;;;;;;;;5093709;28;20487;-69
2022/05/23 13:25:04;;;;;;;15.68;4.88;;;;;;;;;;5093625;28;20067;-69
2022/05/23 13:27:37;;;;;;;9.15;3.55;;;;;;;;;;5094406;28;20490;-68
2022/05/23 13:30:06;;;;;;;8.80;3.40;;;;;;;;;;5094064;28;20097;-69
2022/05/23 13:32:32;;;;;;;10.38;5.32;;;;;;;;;;5093641;28;20040;-68
2022/05/23 13:34:59;;;;;;;11.48;6.03;;;;;;;;;;5093549;28;20044;-67
2022/05/23 13:37:36;;;;;;;8.25;3.30;;;;;;;;;;5093947;28;20620;-68
2022/05/23 13:40:10;;;;;;;11.50;4.80;;;;;;;;;;5093903;28;20048;-67
2022/05/23 13:42:36;;;;;;;17.05;6.35;;;;;;;;;;5092701;28;20221;-68
2022/05/23 13:45:16;;;;;;;14.18;4.88;;;;;;;;;;5093219;28;20575;-68
2022/05/23 13:47:53;;;;;;;24.05;7.40;;;;;;;;;;5093188;28;20082;-67
2022/05/23 13:50:21;;;;;;;9.45;4.05;;;;;;;;;;5093143;28;20506;-67
2022/05/23 13:52:58;;;;;;;10.65;4.32;;;;;;;;;;5093923;28;20063;-67
2022/05/23 13:55:30;;;;;;;7.43;3.15;;;;;;;;;;5093555;28;20453;-67
2022/05/23 13:57:59;;;;;;;8.85;3.72;;;;;;;;;;5092953;28;20073;-67
2022/05/23 14:00:30;;;;;;;8.07;3.95;;;;;;;;;;5093116;28;20044;-68
2022/05/23 14:03:04;;;;;;;5.13;2.88;;;;;;;;;;5093063;28;20040;-67
2022/05/23 14:05:31;;;;;;;11.90;3.88;;;;;;;;;;5092841;28;20491;-68
2022/05/23 14:07:58;;;;;;;28.75;9.68;;;;;;;;;;5093747;28;20044;-67
2022/05/23 14:10:28;;;;;;;31.90;9.07;;;;;;;;;;5092626;28;20158;-68
2022/05/23 14:12:55;;;;;;;14.30;5.85;;;;;;;;;;5092873;28;20051;-67
2022/05/23 14:15:23;;;;;;;7.17;3.73;;;;;;;;;;5092782;28;20494;-67
2022/05/23 14:17:50;;;;;;;43.67;11.98;;;;;;;;;;5093701;28;20055;-67
2022/05/23 14:20:32;;;;;;;9.43;4.68;;;;;;;;;;5092657;28;20044;-67
2022/05/23 14:23:04;;;;;;;13.60;5.22;;;;;;;;;;5093147;28;20052;-67
2022/05/23 14:25:32;;;;;;;9.15;3.78;;;;;;;;;;5092278;28;20516;-67
2022/05/23 14:28:04;;;;;;;7.20;3.30;;;;;;;;;;5092655;28;20044;-66
2022/05/23 14:30:35;;;;;;;6.68;3.20;;;;;;;;;;5092819;28;20067;-67
2022/05/23 14:33:07;;;;;;;81.90;25.80;;;;;;;;;;5093498;28;20058;-67
2022/05/23 14:35:37;;;;;;;42.40;14.65;;;;;;;;;;5092357;28;20131;-69
2022/05/23 14:38:03;;;;;;;8.85;4.40;;;;;;;;;;5093517;28;20495;-69
2022/05/23 14:40:33;;;;;;;8.68;4.05;;;;;;;;;;5090994;28;20079;-68
2022/05/23 14:42:59;;;;;;;21.80;7.68;;;;;;;;;;5092640;28;20044;-68
2022/05/23 14:45:29;;;;;;;21.63;7.47;;;;;;;;;;5092101;28;20036;-68
2022/05/23 14:48:07;;;;;;;13.73;5.50;;;;;;;;;;5091254;28;20406;-69
2022/05/23 14:50:38;;;;;;;19.27;6.50;;;;;;;;;;5092446;28;20099;-68
2022/05/23 14:55:51;;;;;;;16.02;4.72;;;;;;;;;;5092197;28;20075;-68
2022/05/23 15:01:03;;;;;;;9.02;3.70;;;;;;;;;;5091950;28;20441;-68
2022/05/23 15:03:43;;;;;;;5.45;3.55;;;;;;;;;;5092401;28;20044;-68
2022/05/23 15:06:09;;;;;;;12.32;4.32;;;;;;;;;;5091720;28;20589;-68
2022/05/23 15:08:35;;;;;;;68.72;19.50;;;;;;;;;;5092644;28;20081;-68
2022/05/23 15:11:02;;;;;;;11.63;5.10;;;;;;;;;;5092157;28;20123;-68
2022/05/23 15:13:33;;;;;;;16.77;5.28;;;;;;;;;;5091919;28;20462;-70
2022/05/23 15:16:02;;;;;;;19.33;5.28;;;;;;;;;;5091403;28;20127;-68
2022/05/23 15:18:29;;;;;;;10.70;4.32;;;;;;;;;;5092781;28;20071;-68
2022/05/23 15:20:55;;;;;;;14.02;5.07;;;;;;;;;;5091751;28;20109;-68
2022/05/23 15:23:21;;;;;;;6.07;3.13;;;;;;;;;;5091798;28;20040;-68
2022/05/23 15:25:48;;;;;;;6.30;3.40;;;;;;;;;;5092592;28;20051;-68
2022/05/23 15:28:14;;;;;;;15.48;3.70;;;;;;;;;;5091897;28;20040;-68
2022/05/23 15:30:40;;;;;;;5.53;3.10;;;;;;;;;;5092073;28;20089;-68
2022/05/23 15:33:07;;;;;;;12.45;4.80;;;;;;;;;;5091800;28;20044;-68
2022/05/23 15:35:33;;;;;;;18.00;5.30;;;;;;;;;;5091642;28;20060;-68
2022/05/23 15:37:59;;;;;;;18.63;7.25;;;;;;;;;;5091652;28;20044;-68
2022/05/23 15:40:26;;;;;;;28.48;7.13;;;;;;;;;;5092333;28;20403;-68
2022/05/23 15:42:52;;;;;;;10.77;4.72;;;;;;;;;;5092029;28;20048;-68
2022/05/23 15:45:19;;;;;;;14.02;5.10;;;;;;;;;;5091558;28;20412;-68
2022/05/23 15:47:46;;;;;;;18.88;6.13;;;;;;;;;;5093223;28;20036;-68
2022/05/23 15:50:13;;;;;;;17.58;6.75;;;;;;;;;;5092491;28;20040;-68
2022/05/23 15:52:39;;;;;;;16.40;5.35;;;;;;;;;;5092798;28;20052;-69
2022/05/23 15:55:06;;;;;;;15.95;4.75;;;;;;;;;;5090538;28;20457;-68
2022/05/23 15:57:35;;;;;;;7.22;3.60;;;;;;;;;;5092554;28;20040;-68